createdAt,value
2022-11-26T00:02:27.210Z,99617.34
2022-11-26T00:04:57.163Z,99620.91
2022-11-26T00:07:27.569Z,99618.38
2022-11-26T00:09:56.926Z,99622.38
2022-11-26T00:12:29.385Z,99615.66
2022-11-26T00:14:58.754Z,99615.84
2022-11-26T00:17:26.386Z,99608.97
2022-11-26T00:19:56.174Z,99618.16
2022-11-26T00:22:31.778Z,99608.94
2022-11-26T00:24:59.574Z,99634.22
2022-11-26T00:27:28.432Z,99639.03
2022-11-26T00:29:56.464Z,99635.44
2022-11-26T00:32:26.608Z,99641.72
2022-11-26T00:34:54.386Z,99630.63
2022-11-26T00:37:29.735Z,99646.31
2022-11-26T00:39:58.315Z,99636.25
2022-11-26T00:42:25.608Z,99645.66
2022-11-26T00:44:52.795Z,99641.72
2022-11-26T00:47:20.000Z,99642.34
2022-11-26T00:49:47.159Z,99634.19
2022-11-26T00:52:35.554Z,99637.50
2022-11-26T00:55:16.372Z,99651.06
2022-11-26T00:57:43.954Z,99638.53
2022-11-26T01:00:20.952Z,99639.31
2022-11-26T01:02:48.794Z,99647.25
2022-11-26T01:05:16.918Z,99656.66
2022-11-26T01:07:45.617Z,99651.25
2022-11-26T01:10:24.422Z,99655.00
2022-11-26T01:12:53.434Z,99649.97
2022-11-26T01:15:24.159Z,99646.81
2022-11-26T01:17:53.076Z,99656.88
2022-11-26T01:20:30.840Z,99661.91
2022-11-26T01:22:59.364Z,99659.19
2022-11-26T01:25:28.085Z,99667.78
2022-11-26T01:27:55.535Z,99667.13
2022-11-26T01:30:27.186Z,99669.41
2022-11-26T01:32:54.504Z,99677.97
2022-11-26T01:35:22.675Z,99673.00
2022-11-26T01:37:50.567Z,99676.16
2022-11-26T01:40:26.996Z,99683.03
2022-11-26T01:43:00.420Z,99672.19
2022-11-26T01:45:28.226Z,99677.00
2022-11-26T01:47:55.390Z,99678.66
2022-11-26T01:50:28.899Z,99674.50
2022-11-26T01:53:19.646Z,99681.16
2022-11-26T01:55:57.864Z,99676.78
2022-11-26T01:58:39.653Z,99674.06
2022-11-26T02:01:08.372Z,99683.28
2022-11-26T02:03:43.908Z,99677.63
2022-11-26T02:06:21.254Z,99679.97
2022-11-26T02:08:48.632Z,99673.03
2022-11-26T02:11:24.254Z,99689.38
2022-11-26T02:13:56.734Z,99685.81
2022-11-26T02:16:48.292Z,99690.59
2022-11-26T02:19:49.610Z,99696.03
2022-11-26T02:23:00.112Z,99691.44
2022-11-26T02:25:48.396Z,99690.41
2022-11-26T02:28:55.363Z,99692.72
2022-11-26T02:31:36.264Z,99698.16
2022-11-26T02:34:15.405Z,99700.03
2022-11-26T02:36:55.925Z,99692.94
2022-11-26T02:39:26.920Z,99694.41
2022-11-26T02:41:58.804Z,99696.50
2022-11-26T02:44:43.360Z,99688.97
2022-11-26T02:47:15.556Z,99693.91
2022-11-26T02:49:45.200Z,99694.56
2022-11-26T02:52:15.419Z,99696.84
2022-11-26T02:54:44.751Z,99689.94
2022-11-26T02:57:17.516Z,99698.06
2022-11-26T02:59:45.582Z,99693.91
2022-11-26T03:02:32.486Z,99691.00
2022-11-26T03:05:02.701Z,99694.97
2022-11-26T03:07:32.663Z,99689.16
2022-11-26T03:10:02.376Z,99696.88
2022-11-26T03:12:30.297Z,99690.59
2022-11-26T03:14:57.619Z,99691.69
2022-11-26T03:17:24.844Z,99689.16
2022-11-26T03:19:52.364Z,99696.94
2022-11-26T03:22:19.577Z,99688.97
2022-11-26T03:24:46.798Z,99685.63
2022-11-26T03:27:13.978Z,99693.38
2022-11-26T03:29:41.142Z,99686.91
2022-11-26T03:32:08.527Z,99701.50
2022-11-26T03:34:35.792Z,99706.53
2022-11-26T03:37:03.149Z,99710.09
2022-11-26T03:39:30.275Z,99710.09
2022-11-26T03:41:57.462Z,99709.06
2022-11-26T03:44:24.586Z,99724.09
2022-11-26T03:46:51.733Z,99717.38
2022-11-26T03:49:19.034Z,99727.00
2022-11-26T03:51:46.139Z,99725.59
2022-11-26T03:54:13.381Z,99722.63
2022-11-26T03:56:40.551Z,99715.72
2022-11-26T03:59:07.773Z,99712.78
2022-11-26T04:01:35.007Z,99719.03
2022-11-26T04:04:02.278Z,99725.09
2022-11-26T04:06:29.453Z,99713.41
2022-11-26T04:08:56.637Z,99729.69
2022-11-26T04:11:23.787Z,99725.69
2022-11-26T04:13:50.913Z,99730.34
2022-11-26T04:16:18.139Z,99723.84
2022-11-26T04:18:45.386Z,99730.97
2022-11-26T04:21:12.575Z,99729.09
2022-11-26T04:23:39.851Z,99736.22
2022-11-26T04:26:07.049Z,99730.38
2022-11-26T04:28:34.180Z,99729.09
2022-11-26T04:31:01.642Z,99739.78
2022-11-26T04:33:28.798Z,99747.09
2022-11-26T04:35:56.249Z,99743.75
2022-11-26T04:38:25.945Z,99744.13
2022-11-26T04:40:53.431Z,99736.59
2022-11-26T04:43:20.830Z,99753.13
2022-11-26T04:45:48.069Z,99757.72
2022-11-26T04:48:15.567Z,99750.63
2022-11-26T04:50:42.675Z,99750.41
2022-11-26T04:53:09.921Z,99755.84
2022-11-26T04:55:37.548Z,99757.50
2022-11-26T04:58:04.786Z,99746.84
2022-11-26T05:00:31.955Z,99743.91
2022-11-26T05:02:59.183Z,99752.50
2022-11-26T05:05:26.402Z,99755.22
2022-11-26T05:07:53.695Z,99756.06
2022-11-26T05:10:21.010Z,99759.16
2022-11-26T05:12:48.176Z,99764.81
2022-11-26T05:15:15.415Z,99764.19
2022-11-26T05:17:42.674Z,99766.91
2022-11-26T05:20:10.909Z,99766.66
2022-11-26T05:22:38.065Z,99764.78
2022-11-26T05:25:05.500Z,99767.06
2022-11-26T05:27:32.727Z,99772.09
2022-11-26T05:30:00.039Z,99766.25
2022-11-26T05:32:27.709Z,99766.66
2022-11-26T05:34:59.865Z,99783.19
2022-11-26T05:37:27.460Z,99787.97
2022-11-26T05:39:54.638Z,99787.56
2022-11-26T05:42:22.028Z,99797.41
2022-11-26T05:44:49.126Z,99790.09
2022-11-26T05:47:16.294Z,99791.34
2022-11-26T05:49:43.467Z,99798.25
2022-11-26T05:52:10.827Z,99814.78
2022-11-26T05:54:38.256Z,99820.41
2022-11-26T05:57:05.569Z,99829.38
2022-11-26T05:59:32.675Z,99827.31
2022-11-26T06:01:59.833Z,99828.97
2022-11-26T06:04:27.008Z,99839.84
2022-11-26T06:06:54.193Z,99829.38
2022-11-26T06:09:22.052Z,99832.28
2022-11-26T06:11:52.516Z,99841.94
2022-11-26T06:14:22.779Z,99838.97
2022-11-26T06:16:50.125Z,99843.63
2022-11-26T06:19:17.368Z,99852.13
2022-11-26T06:21:44.633Z,99856.72
2022-11-26T06:24:12.172Z,99850.25
2022-11-26T06:26:39.345Z,99844.59
2022-11-26T06:29:06.599Z,99856.94
2022-11-26T06:31:34.120Z,99848.81
2022-11-26T06:34:01.435Z,99837.69
2022-11-26T06:36:28.691Z,99854.22
2022-11-26T06:38:55.812Z,99847.31
2022-11-26T06:41:23.166Z,99851.69
2022-11-26T06:46:34.992Z,99863.22
2022-11-26T06:51:38.575Z,99868.06
2022-11-26T06:54:05.843Z,99868.50
2022-11-26T06:56:38.185Z,99868.50
2022-11-26T06:59:06.053Z,99875.16
2022-11-26T07:01:33.400Z,99866.38
2022-11-26T07:31:30.217Z,99906.00
2022-11-26T07:33:58.548Z,99903.28
2022-11-26T07:36:28.960Z,99905.81
2022-11-26T07:39:02.631Z,99915.41
2022-11-26T07:41:31.624Z,99917.75
2022-11-26T07:43:58.773Z,99920.06
2022-11-26T07:46:27.156Z,99923.19
2022-11-26T07:48:56.771Z,99929.69
2022-11-26T07:51:31.872Z,99938.69
2022-11-26T07:54:03.368Z,99939.75
2022-11-26T07:56:30.771Z,99940.19
2022-11-26T08:01:30.442Z,99944.97
2022-11-26T08:04:01.648Z,99933.66
2022-11-26T08:06:32.931Z,99937.22
2022-11-26T08:09:09.192Z,99936.38
2022-11-26T10:26:48.193Z,99972.75
2022-11-26T10:46:34.572Z,99979.91
2022-11-26T10:49:26.697Z,99994.59
2022-11-26T10:52:04.100Z,99983.28
2022-11-26T10:54:44.532Z,99983.69
2022-11-26T11:00:39.378Z,99987.09
2022-11-26T11:06:38.852Z,99984.38
2022-11-26T11:09:26.372Z,99975.59
2022-11-26T11:48:26.293Z,99999.66
2022-11-26T11:54:03.067Z,100003.88
2022-11-26T11:56:40.753Z,99998.22
2022-11-26T12:02:39.447Z,99996.34
2022-11-26T12:23:27.025Z,100004.94
2022-11-26T12:26:30.188Z,99999.47
2022-11-26T12:29:17.697Z,100012.88
2022-11-26T12:32:05.159Z,100008.47
2022-11-26T12:34:49.487Z,100006.81
2022-11-26T12:44:31.195Z,100006.81
2022-11-26T12:53:40.856Z,100008.50
2022-11-26T12:59:00.358Z,100014.41
2022-11-26T15:32:06.887Z,100049.00
2022-11-26T15:56:45.857Z,100074.09
2022-11-26T15:59:22.432Z,100074.53
2022-11-26T16:01:50.693Z,100067.63
2022-11-26T16:04:35.658Z,100070.34
2022-11-26T16:07:16.597Z,100067.00
2022-11-26T16:09:45.435Z,100066.78
2022-11-26T16:12:34.343Z,100076.22
2022-11-26T16:17:43.057Z,100071.38
2022-11-26T16:20:27.400Z,100079.34
2022-11-26T16:22:59.222Z,100072.44
2022-11-26T16:25:34.462Z,100077.66
2022-11-26T16:28:21.905Z,100090.50
2022-11-26T16:30:49.156Z,100075.78
2022-11-26T16:33:22.162Z,100082.28
2022-11-26T16:36:02.274Z,100082.28
2022-11-26T16:38:43.689Z,100079.34
2022-11-26T16:41:30.321Z,100086.50
2022-11-26T16:43:58.726Z,100083.97
2022-11-26T16:46:28.104Z,100088.56
2022-11-26T16:49:03.595Z,100082.28
2022-11-26T16:51:31.674Z,100090.69
2022-11-26T16:53:58.879Z,100096.78
2022-11-26T16:56:39.503Z,100101.38
2022-11-26T16:59:19.615Z,100088.78
2022-11-26T17:01:47.150Z,100098.41
2022-11-26T17:04:14.775Z,100105.13
2022-11-26T17:06:43.292Z,100100.09
2022-11-26T17:09:18.830Z,100103.88
2022-11-26T17:11:46.727Z,100087.34
2022-11-26T17:14:14.817Z,100106.81
2022-11-26T17:16:42.173Z,100099.50
2022-11-26T17:19:15.187Z,100112.88
2022-11-26T17:21:42.704Z,100104.72
2022-11-26T17:24:09.945Z,100102.84
2022-11-26T17:26:37.380Z,100098.91
2022-11-26T17:29:04.612Z,100096.38
2022-11-26T17:31:31.905Z,100090.25
2022-11-26T17:33:59.278Z,100094.25
2022-11-26T17:36:26.583Z,100100.13
2022-11-26T17:38:53.800Z,100085.22
2022-11-26T17:41:21.158Z,100097.41
2022-11-26T17:43:48.361Z,100087.75
2022-11-26T17:46:20.029Z,100101.16
2022-11-26T17:48:49.164Z,100099.94
2022-11-26T17:51:16.790Z,100110.81
2022-11-26T17:53:45.328Z,100107.25
2022-11-26T17:56:27.128Z,100111.66
2022-11-26T17:58:54.756Z,100110.22
2022-11-26T18:01:22.338Z,100106.66
2022-11-26T18:03:49.542Z,100115.25
2022-11-26T18:06:39.289Z,100121.53
2022-11-26T18:09:06.421Z,100119.00
2022-11-26T18:11:53.536Z,100113.16
2022-11-26T18:14:21.597Z,100113.97
2022-11-26T18:16:49.959Z,100116.72
2022-11-26T18:19:20.308Z,100125.09
2022-11-26T18:21:50.739Z,100118.56
2022-11-26T18:24:18.292Z,100124.88
2022-11-26T18:26:45.501Z,100115.91
2022-11-26T18:29:13.381Z,100124.88
2022-11-26T18:34:32.952Z,100128.44
2022-11-26T18:37:00.391Z,100115.66
2022-11-26T18:39:28.661Z,100109.56
2022-11-26T18:42:15.421Z,100113.38
2022-11-26T18:44:44.051Z,100121.34
2022-11-26T18:47:13.020Z,100128.25
2022-11-26T18:49:44.525Z,100120.69
2022-11-26T18:52:13.404Z,100125.34
2022-11-26T18:54:41.370Z,100121.97
2022-11-26T18:57:08.993Z,100117.31
2022-11-26T18:59:37.043Z,100128.44
2022-11-26T19:02:06.810Z,100126.97
2022-11-26T19:04:38.444Z,100130.56
2022-11-26T19:07:09.470Z,100125.72
2022-11-26T19:09:40.515Z,100124.88
2022-11-26T19:12:08.874Z,100123.81
2022-11-26T19:14:36.184Z,100123.59
2022-11-26T19:17:04.676Z,100114.56
2022-11-26T19:19:33.239Z,100121.47
2022-11-26T19:22:02.081Z,100129.06
2022-11-26T19:24:31.006Z,100120.03
2022-11-26T19:26:58.459Z,100125.72
2022-11-26T19:29:25.906Z,100131.59
2022-11-26T19:31:54.752Z,100132.84
2022-11-26T19:34:25.385Z,100128.00
2022-11-26T19:40:06.015Z,100153.78
2022-11-26T19:45:12.741Z,100143.50
2022-11-26T19:47:39.960Z,100149.19
2022-11-26T19:50:09.433Z,100156.50
2022-11-26T19:52:36.551Z,100152.50
2022-11-26T19:55:04.492Z,100161.09
2022-11-26T19:57:31.637Z,100156.50
2022-11-26T19:59:58.848Z,100156.28
2022-11-26T20:02:26.392Z,100149.78
2022-11-26T20:04:53.667Z,100163.59
2022-11-26T20:07:20.892Z,100168.66
2022-11-26T20:09:52.432Z,100170.97
2022-11-26T20:12:20.379Z,100163.84
2022-11-26T20:14:49.574Z,100153.56
2022-11-26T20:17:18.988Z,100148.97
2022-11-26T20:19:46.708Z,100156.09
2022-11-26T20:22:14.333Z,100162.19
2022-11-26T20:24:42.777Z,100152.72
2022-11-26T20:27:11.324Z,100158.81
2022-11-26T20:29:39.731Z,100158.16
2022-11-26T20:32:09.525Z,100166.97
2022-11-26T20:34:53.616Z,100167.19
2022-11-26T20:37:24.959Z,100165.72
2022-11-26T20:39:53.272Z,100175.34
2022-11-26T20:42:20.904Z,100171.78
2022-11-26T20:44:49.745Z,100173.03
2022-11-26T20:47:19.197Z,100169.88
2022-11-26T20:49:47.735Z,100177.44
2022-11-26T20:52:16.562Z,100180.34
2022-11-26T20:54:50.813Z,100183.72
2022-11-26T20:57:34.054Z,100182.88
2022-11-26T21:00:14.456Z,100191.69
2022-11-26T21:16:43.654Z,100189.38
2022-11-26T21:28:26.117Z,100189.78
2022-11-26T21:34:06.899Z,100193.53
2022-11-26T21:47:42.258Z,100208.84
2022-11-26T21:50:30.990Z,100210.91
2022-11-26T21:58:34.514Z,100200.19
2022-11-26T22:01:29.373Z,100200.19
2022-11-26T22:04:00.089Z,100205.69
2022-11-26T22:06:32.337Z,100191.38
2022-11-26T22:09:02.510Z,100199.59
2022-11-26T22:11:55.903Z,100193.88
2022-11-26T22:14:37.974Z,100194.34
2022-11-26T22:17:07.853Z,100186.38
2022-11-26T22:19:47.480Z,100189.34
2022-11-26T22:22:17.022Z,100186.22
2022-11-26T22:24:50.665Z,100188.28
2022-11-26T22:27:25.978Z,100190.38
2022-11-26T22:29:56.640Z,100191.63
2022-11-26T22:32:39.670Z,100193.53
2022-11-26T22:35:16.347Z,100200.00
2022-11-26T22:37:54.060Z,100199.19
2022-11-26T22:40:28.455Z,100201.09
2022-11-26T22:43:00.738Z,100187.66
2022-11-26T22:45:32.955Z,100196.00
2022-11-26T22:48:07.276Z,100184.50
2022-11-26T22:50:43.718Z,100187.22
2022-11-26T22:53:13.036Z,100181.34
2022-11-26T22:55:53.398Z,100188.44
2022-11-26T22:58:24.942Z,100197.47
2022-11-26T23:01:09.771Z,100196.00
2022-11-26T23:03:41.686Z,100208.34
2022-11-26T23:06:13.809Z,100184.66
2022-11-26T23:08:45.063Z,100190.53
2022-11-26T23:11:19.769Z,100184.44
2022-11-26T23:13:51.887Z,100190.09
2022-11-26T23:16:25.686Z,100193.28
2022-11-26T23:18:56.235Z,100188.00
2022-11-26T23:21:33.688Z,100184.66
2022-11-26T23:24:07.643Z,100187.38
2022-11-26T23:26:38.733Z,100182.97
2022-11-26T23:29:07.915Z,100194.91
2022-11-26T23:31:44.512Z,100185.25
2022-11-26T23:34:12.677Z,100181.69
2022-11-26T23:36:39.952Z,100176.63
2022-11-26T23:39:11.179Z,100177.25
2022-11-26T23:41:38.396Z,100181.84
2022-11-26T23:44:05.827Z,100188.97
2022-11-26T23:46:35.445Z,100184.56
2022-11-26T23:49:02.851Z,100182.06
2022-11-26T23:51:32.356Z,100175.72
2022-11-26T23:53:59.827Z,100183.50
2022-11-26T23:56:31.576Z,100179.94
2022-11-26T23:59:02.176Z,100182.41
